sensor_id;sensor_type;location;lat;lon;timestamp;temperature;humidity
37446;DHT22;23307;51.136;14.942;2023-06-04T00:00:36;12.40;72.60
37446;DHT22;23307;51.136;14.942;2023-06-04T00:03:01;12.40;72.30
37446;DHT22;23307;51.136;14.942;2023-06-04T00:05:27;12.30;72.40
37446;DHT22;23307;51.136;14.942;2023-06-04T00:07:52;12.20;72.70
37446;DHT22;23307;51.136;14.942;2023-06-04T00:10:18;12.20;73.10
37446;DHT22;23307;51.136;14.942;2023-06-04T00:12:43;12.10;73.40
37446;DHT22;23307;51.136;14.942;2023-06-04T00:15:09;12.00;73.50
37446;DHT22;23307;51.136;14.942;2023-06-04T00:17:35;12.00;73.80
37446;DHT22;23307;51.136;14.942;2023-06-04T00:20:00;11.90;73.60
37446;DHT22;23307;51.136;14.942;2023-06-04T00:22:26;11.90;74.30
37446;DHT22;23307;51.136;14.942;2023-06-04T00:24:51;11.90;74.50
37446;DHT22;23307;51.136;14.942;2023-06-04T00:27:17;11.90;74.50
37446;DHT22;23307;51.136;14.942;2023-06-04T00:29:43;11.80;74.40
37446;DHT22;23307;51.136;14.942;2023-06-04T00:32:09;11.60;74.70
37446;DHT22;23307;51.136;14.942;2023-06-04T00:34:34;11.60;75.20
37446;DHT22;23307;51.136;14.942;2023-06-04T00:36:59;11.50;75.60
37446;DHT22;23307;51.136;14.942;2023-06-04T00:39:26;11.60;76.00
37446;DHT22;23307;51.136;14.942;2023-06-04T00:41:52;11.60;76.00
37446;DHT22;23307;51.136;14.942;2023-06-04T00:44:17;11.50;75.80
37446;DHT22;23307;51.136;14.942;2023-06-04T00:46:44;11.40;75.70
37446;DHT22;23307;51.136;14.942;2023-06-04T00:49:11;11.50;76.20
37446;DHT22;23307;51.136;14.942;2023-06-04T00:51:37;11.50;76.30
37446;DHT22;23307;51.136;14.942;2023-06-04T00:54:04;11.40;76.10
37446;DHT22;23307;51.136;14.942;2023-06-04T00:56:36;11.40;76.20
37446;DHT22;23307;51.136;14.942;2023-06-04T00:59:04;11.40;76.20
37446;DHT22;23307;51.136;14.942;2023-06-04T01:01:44;11.30;75.90
37446;DHT22;23307;51.136;14.942;2023-06-04T01:04:16;11.20;76.50
37446;DHT22;23307;51.136;14.942;2023-06-04T01:06:44;11.20;76.60
37446;DHT22;23307;51.136;14.942;2023-06-04T01:09:10;11.10;76.80
37446;DHT22;23307;51.136;14.942;2023-06-04T01:11:37;11.20;77.80
37446;DHT22;23307;51.136;14.942;2023-06-04T01:14:04;11.10;77.10
37446;DHT22;23307;51.136;14.942;2023-06-04T01:16:36;10.90;76.90
37446;DHT22;23307;51.136;14.942;2023-06-04T01:22:03;10.70;77.10
37446;DHT22;23307;51.136;14.942;2023-06-04T01:24:34;10.60;78.10
37446;DHT22;23307;51.136;14.942;2023-06-04T01:27:02;10.50;78.40
37446;DHT22;23307;51.136;14.942;2023-06-04T01:29:29;10.50;79.10
37446;DHT22;23307;51.136;14.942;2023-06-04T01:31:55;10.50;79.60
37446;DHT22;23307;51.136;14.942;2023-06-04T01:34:21;10.60;79.80
37446;DHT22;23307;51.136;14.942;2023-06-04T01:36:47;10.60;79.80
37446;DHT22;23307;51.136;14.942;2023-06-04T01:39:12;10.60;79.60
37446;DHT22;23307;51.136;14.942;2023-06-04T01:41:38;10.50;79.40
37446;DHT22;23307;51.136;14.942;2023-06-04T01:44:03;10.40;79.30
37446;DHT22;23307;51.136;14.942;2023-06-04T01:46:29;10.30;79.20
37446;DHT22;23307;51.136;14.942;2023-06-04T01:48:54;10.20;79.60
37446;DHT22;23307;51.136;14.942;2023-06-04T01:51:20;10.10;79.90
37446;DHT22;23307;51.136;14.942;2023-06-04T01:53:45;10.00;80.60
37446;DHT22;23307;51.136;14.942;2023-06-04T01:56:11;10.00;81.10
37446;DHT22;23307;51.136;14.942;2023-06-04T01:58:36;9.90;82.50
37446;DHT22;23307;51.136;14.942;2023-06-04T02:01:02;10.00;82.00
37446;DHT22;23307;51.136;14.942;2023-06-04T02:03:30;10.00;82.10
37446;DHT22;23307;51.136;14.942;2023-06-04T02:06:03;10.00;81.70
37446;DHT22;23307;51.136;14.942;2023-06-04T02:08:28;10.00;82.00
37446;DHT22;23307;51.136;14.942;2023-06-04T02:10:55;9.90;82.80
37446;DHT22;23307;51.136;14.942;2023-06-04T02:13:21;9.90;83.10
37446;DHT22;23307;51.136;14.942;2023-06-04T02:15:47;9.90;83.40
37446;DHT22;23307;51.136;14.942;2023-06-04T02:18:17;9.90;83.90
37446;DHT22;23307;51.136;14.942;2023-06-04T02:20:47;9.90;84.00
37446;DHT22;23307;51.136;14.942;2023-06-04T02:23:14;9.90;84.10
37446;DHT22;23307;51.136;14.942;2023-06-04T02:25:40;9.90;84.00
37446;DHT22;23307;51.136;14.942;2023-06-04T02:28:06;9.90;84.10
37446;DHT22;23307;51.136;14.942;2023-06-04T02:30:32;10.00;83.20
37446;DHT22;23307;51.136;14.942;2023-06-04T02:32:57;10.00;83.00
37446;DHT22;23307;51.136;14.942;2023-06-04T02:35:27;9.90;84.30
37446;DHT22;23307;51.136;14.942;2023-06-04T02:37:52;9.90;84.40
37446;DHT22;23307;51.136;14.942;2023-06-04T02:40:18;9.90;84.70
37446;DHT22;23307;51.136;14.942;2023-06-04T02:42:43;9.80;85.00
37446;DHT22;23307;51.136;14.942;2023-06-04T02:45:10;9.80;85.10
37446;DHT22;23307;51.136;14.942;2023-06-04T02:47:37;9.60;86.10
37446;DHT22;23307;51.136;14.942;2023-06-04T02:50:03;9.60;86.70
37446;DHT22;23307;51.136;14.942;2023-06-04T02:52:29;9.60;86.90
37446;DHT22;23307;51.136;14.942;2023-06-04T02:54:55;9.60;87.40
37446;DHT22;23307;51.136;14.942;2023-06-04T02:57:21;9.60;87.50
37446;DHT22;23307;51.136;14.942;2023-06-04T02:59:46;9.50;87.70
37446;DHT22;23307;51.136;14.942;2023-06-04T03:02:12;9.50;88.10
37446;DHT22;23307;51.136;14.942;2023-06-04T03:04:38;9.40;88.70
37446;DHT22;23307;51.136;14.942;2023-06-04T03:07:03;9.40;88.90
37446;DHT22;23307;51.136;14.942;2023-06-04T03:09:32;9.40;88.80
37446;DHT22;23307;51.136;14.942;2023-06-04T03:12:02;9.30;88.80
37446;DHT22;23307;51.136;14.942;2023-06-04T03:14:28;9.30;90.10
37446;DHT22;23307;51.136;14.942;2023-06-04T03:16:58;9.30;90.40
37446;DHT22;23307;51.136;14.942;2023-06-04T03:19:26;9.30;90.80
37446;DHT22;23307;51.136;14.942;2023-06-04T03:21:52;9.20;90.90
37446;DHT22;23307;51.136;14.942;2023-06-04T03:24:19;9.10;90.90
37446;DHT22;23307;51.136;14.942;2023-06-04T03:26:44;9.10;91.40
37446;DHT22;23307;51.136;14.942;2023-06-04T03:29:10;9.10;91.60
37446;DHT22;23307;51.136;14.942;2023-06-04T03:31:35;9.10;91.70
37446;DHT22;23307;51.136;14.942;2023-06-04T03:34:01;9.10;92.20
37446;DHT22;23307;51.136;14.942;2023-06-04T03:36:26;9.10;92.40
37446;DHT22;23307;51.136;14.942;2023-06-04T03:38:57;9.10;93.00
37446;DHT22;23307;51.136;14.942;2023-06-04T03:41:22;9.20;93.50
37446;DHT22;23307;51.136;14.942;2023-06-04T03:43:48;9.20;93.90
37446;DHT22;23307;51.136;14.942;2023-06-04T03:46:13;9.20;94.00
37446;DHT22;23307;51.136;14.942;2023-06-04T03:48:41;9.10;94.30
37446;DHT22;23307;51.136;14.942;2023-06-04T03:51:06;9.10;94.50
37446;DHT22;23307;51.136;14.942;2023-06-04T03:53:32;9.20;95.10
37446;DHT22;23307;51.136;14.942;2023-06-04T03:55:57;9.10;95.90
37446;DHT22;23307;51.136;14.942;2023-06-04T03:58:23;9.10;96.50
37446;DHT22;23307;51.136;14.942;2023-06-04T04:00:49;9.10;97.20
37446;DHT22;23307;51.136;14.942;2023-06-04T04:03:15;9.20;97.80
37446;DHT22;23307;51.136;14.942;2023-06-04T04:05:40;9.20;98.20
37446;DHT22;23307;51.136;14.942;2023-06-04T04:08:05;9.20;99.00
37446;DHT22;23307;51.136;14.942;2023-06-04T04:10:31;9.30;99.50
37446;DHT22;23307;51.136;14.942;2023-06-04T04:12:56;9.30;99.80
37446;DHT22;23307;51.136;14.942;2023-06-04T04:15:23;9.40;99.90
37446;DHT22;23307;51.136;14.942;2023-06-04T04:17:49;9.40;99.90
37446;DHT22;23307;51.136;14.942;2023-06-04T04:20:14;9.50;99.90
37446;DHT22;23307;51.136;14.942;2023-06-04T04:22:41;9.50;99.90
37446;DHT22;23307;51.136;14.942;2023-06-04T04:25:07;9.60;99.90
37446;DHT22;23307;51.136;14.942;2023-06-04T04:27:34;9.60;99.90
37446;DHT22;23307;51.136;14.942;2023-06-04T04:30:00;9.70;99.90
37446;DHT22;23307;51.136;14.942;2023-06-04T04:32:26;9.70;99.90
37446;DHT22;23307;51.136;14.942;2023-06-04T04:34:53;9.80;99.90
37446;DHT22;23307;51.136;14.942;2023-06-04T04:37:20;9.80;99.90
37446;DHT22;23307;51.136;14.942;2023-06-04T04:39:49;9.80;99.90
37446;DHT22;23307;51.136;14.942;2023-06-04T04:42:18;9.80;99.90
37446;DHT22;23307;51.136;14.942;2023-06-04T04:44:44;9.90;99.90
37446;DHT22;23307;51.136;14.942;2023-06-04T04:47:14;9.90;99.90
37446;DHT22;23307;51.136;14.942;2023-06-04T04:49:40;10.00;99.90
37446;DHT22;23307;51.136;14.942;2023-06-04T04:52:05;10.00;99.90
37446;DHT22;23307;51.136;14.942;2023-06-04T04:54:31;10.10;99.90
37446;DHT22;23307;51.136;14.942;2023-06-04T04:56:56;10.20;99.90
37446;DHT22;23307;51.136;14.942;2023-06-04T04:59:22;10.20;99.90
37446;DHT22;23307;51.136;14.942;2023-06-04T05:01:47;10.30;99.90
37446;DHT22;23307;51.136;14.942;2023-06-04T05:04:13;10.30;99.90
37446;DHT22;23307;51.136;14.942;2023-06-04T05:06:38;10.40;99.90
37446;DHT22;23307;51.136;14.942;2023-06-04T05:09:04;10.50;99.90
37446;DHT22;23307;51.136;14.942;2023-06-04T05:11:29;10.50;99.90
37446;DHT22;23307;51.136;14.942;2023-06-04T05:13:55;10.60;99.90
37446;DHT22;23307;51.136;14.942;2023-06-04T05:16:20;10.70;99.90
37446;DHT22;23307;51.136;14.942;2023-06-04T05:18:48;10.70;99.90
37446;DHT22;23307;51.136;14.942;2023-06-04T05:21:16;10.90;99.90
37446;DHT22;23307;51.136;14.942;2023-06-04T05:23:42;11.00;99.90
37446;DHT22;23307;51.136;14.942;2023-06-04T05:26:09;11.00;99.90
37446;DHT22;23307;51.136;14.942;2023-06-04T05:28:34;11.10;99.90
37446;DHT22;23307;51.136;14.942;2023-06-04T05:31:00;11.30;99.90
37446;DHT22;23307;51.136;14.942;2023-06-04T05:33:27;11.40;99.90
37446;DHT22;23307;51.136;14.942;2023-06-04T05:35:53;11.50;99.90
37446;DHT22;23307;51.136;14.942;2023-06-04T05:38:20;11.60;99.90
37446;DHT22;23307;51.136;14.942;2023-06-04T05:40:45;11.70;99.90
37446;DHT22;23307;51.136;14.942;2023-06-04T05:43:11;11.80;99.90
37446;DHT22;23307;51.136;14.942;2023-06-04T05:45:37;11.90;99.90
37446;DHT22;23307;51.136;14.942;2023-06-04T05:48:03;12.00;99.90
37446;DHT22;23307;51.136;14.942;2023-06-04T05:50:29;12.10;99.90
37446;DHT22;23307;51.136;14.942;2023-06-04T05:52:55;12.20;99.90
37446;DHT22;23307;51.136;14.942;2023-06-04T05:55:22;12.30;99.90
37446;DHT22;23307;51.136;14.942;2023-06-04T05:57:48;12.40;99.90
37446;DHT22;23307;51.136;14.942;2023-06-04T06:00:14;12.50;99.90
37446;DHT22;23307;51.136;14.942;2023-06-04T06:02:40;12.70;99.90
37446;DHT22;23307;51.136;14.942;2023-06-04T06:05:06;12.80;99.90
37446;DHT22;23307;51.136;14.942;2023-06-04T06:07:33;12.90;99.90
37446;DHT22;23307;51.136;14.942;2023-06-04T06:09:59;13.00;99.90
37446;DHT22;23307;51.136;14.942;2023-06-04T06:12:25;13.10;99.90
37446;DHT22;23307;51.136;14.942;2023-06-04T06:14:50;13.20;99.90
37446;DHT22;23307;51.136;14.942;2023-06-04T06:17:16;13.30;99.90
37446;DHT22;23307;51.136;14.942;2023-06-04T06:19:41;13.40;99.90
37446;DHT22;23307;51.136;14.942;2023-06-04T06:22:07;13.60;99.90
37446;DHT22;23307;51.136;14.942;2023-06-04T06:24:32;13.70;99.90
37446;DHT22;23307;51.136;14.942;2023-06-04T06:26:58;13.80;99.90
37446;DHT22;23307;51.136;14.942;2023-06-04T06:29:24;13.90;99.90
37446;DHT22;23307;51.136;14.942;2023-06-04T06:31:49;14.00;99.90
37446;DHT22;23307;51.136;14.942;2023-06-04T06:34:15;14.10;99.90
37446;DHT22;23307;51.136;14.942;2023-06-04T06:36:40;14.20;99.90
37446;DHT22;23307;51.136;14.942;2023-06-04T06:39:06;14.40;99.90
37446;DHT22;23307;51.136;14.942;2023-06-04T06:41:32;14.50;99.90
37446;DHT22;23307;51.136;14.942;2023-06-04T06:43:57;14.60;99.30
37446;DHT22;23307;51.136;14.942;2023-06-04T06:46:23;14.70;99.10
37446;DHT22;23307;51.136;14.942;2023-06-04T06:48:49;14.90;99.10
37446;DHT22;23307;51.136;14.942;2023-06-04T06:51:14;14.90;98.90
37446;DHT22;23307;51.136;14.942;2023-06-04T06:53:40;15.10;98.60
37446;DHT22;23307;51.136;14.942;2023-06-04T06:56:06;15.20;98.50
37446;DHT22;23307;51.136;14.942;2023-06-04T06:58:31;15.30;97.80
37446;DHT22;23307;51.136;14.942;2023-06-04T07:00:57;15.40;96.80
37446;DHT22;23307;51.136;14.942;2023-06-04T07:03:22;15.50;96.10
37446;DHT22;23307;51.136;14.942;2023-06-04T07:05:48;15.70;95.50
37446;DHT22;23307;51.136;14.942;2023-06-04T07:08:14;15.90;95.00
37446;DHT22;23307;51.136;14.942;2023-06-04T07:10:39;16.00;95.20
37446;DHT22;23307;51.136;14.942;2023-06-04T07:13:05;16.10;95.10
37446;DHT22;23307;51.136;14.942;2023-06-04T07:15:30;16.30;95.00
37446;DHT22;23307;51.136;14.942;2023-06-04T07:17:56;16.40;94.80
37446;DHT22;23307;51.136;14.942;2023-06-04T07:20:21;16.50;94.60
37446;DHT22;23307;51.136;14.942;2023-06-04T07:22:47;16.70;94.40
37446;DHT22;23307;51.136;14.942;2023-06-04T07:25:13;16.90;94.50
37446;DHT22;23307;51.136;14.942;2023-06-04T07:27:38;17.00;93.80
37446;DHT22;23307;51.136;14.942;2023-06-04T07:30:05;17.10;93.20
37446;DHT22;23307;51.136;14.942;2023-06-04T07:32:31;17.30;92.90
37446;DHT22;23307;51.136;14.942;2023-06-04T07:34:57;17.40;92.70
37446;DHT22;23307;51.136;14.942;2023-06-04T07:37:22;17.60;92.70
37446;DHT22;23307;51.136;14.942;2023-06-04T07:39:48;17.80;92.00
37446;DHT22;23307;51.136;14.942;2023-06-04T07:42:13;18.00;91.80
37446;DHT22;23307;51.136;14.942;2023-06-04T07:44:39;18.20;91.60
37446;DHT22;23307;51.136;14.942;2023-06-04T07:47:05;18.30;90.90
37446;DHT22;23307;51.136;14.942;2023-06-04T07:49:30;18.50;90.90
37446;DHT22;23307;51.136;14.942;2023-06-04T07:51:56;18.70;90.70
37446;DHT22;23307;51.136;14.942;2023-06-04T07:54:21;18.90;90.60
37446;DHT22;23307;51.136;14.942;2023-06-04T07:56:47;19.00;89.50
37446;DHT22;23307;51.136;14.942;2023-06-04T07:59:13;19.10;89.30
37446;DHT22;23307;51.136;14.942;2023-06-04T08:01:38;19.20;88.80
37446;DHT22;23307;51.136;14.942;2023-06-04T08:04:04;19.40;89.30
37446;DHT22;23307;51.136;14.942;2023-06-04T08:06:29;19.50;88.30
37446;DHT22;23307;51.136;14.942;2023-06-04T08:08:55;19.70;86.90
37446;DHT22;23307;51.136;14.942;2023-06-04T08:11:20;19.80;86.30
37446;DHT22;23307;51.136;14.942;2023-06-04T08:13:48;19.90;83.90
37446;DHT22;23307;51.136;14.942;2023-06-04T08:16:13;20.10;84.60
37446;DHT22;23307;51.136;14.942;2023-06-04T08:18:40;20.10;80.70
37446;DHT22;23307;51.136;14.942;2023-06-04T08:21:08;20.20;81.60
37446;DHT22;23307;51.136;14.942;2023-06-04T08:23:34;20.30;81.00
37446;DHT22;23307;51.136;14.942;2023-06-04T08:26:00;20.50;82.90
37446;DHT22;23307;51.136;14.942;2023-06-04T08:28:25;20.70;79.30
37446;DHT22;23307;51.136;14.942;2023-06-04T08:30:51;20.70;73.20
37446;DHT22;23307;51.136;14.942;2023-06-04T08:33:16;20.70;71.70
37446;DHT22;23307;51.136;14.942;2023-06-04T08:35:42;20.80;72.20
37446;DHT22;23307;51.136;14.942;2023-06-04T08:38:07;21.00;72.50
37446;DHT22;23307;51.136;14.942;2023-06-04T08:40:33;21.00;71.10
37446;DHT22;23307;51.136;14.942;2023-06-04T08:43:00;21.10;72.70
37446;DHT22;23307;51.136;14.942;2023-06-04T08:45:26;21.20;72.90
37446;DHT22;23307;51.136;14.942;2023-06-04T08:47:53;21.40;72.00
37446;DHT22;23307;51.136;14.942;2023-06-04T08:50:22;21.60;71.50
37446;DHT22;23307;51.136;14.942;2023-06-04T08:52:53;21.70;64.30
37446;DHT22;23307;51.136;14.942;2023-06-04T08:55:20;21.60;61.60
37446;DHT22;23307;51.136;14.942;2023-06-04T08:57:47;21.60;63.90
37446;DHT22;23307;51.136;14.942;2023-06-04T09:00:14;21.60;64.00
37446;DHT22;23307;51.136;14.942;2023-06-04T09:02:40;21.80;62.20
37446;DHT22;23307;51.136;14.942;2023-06-04T09:05:07;21.90;60.90
37446;DHT22;23307;51.136;14.942;2023-06-04T09:07:36;21.90;59.60
37446;DHT22;23307;51.136;14.942;2023-06-04T09:10:05;22.00;60.40
37446;DHT22;23307;51.136;14.942;2023-06-04T09:12:32;22.20;62.30
37446;DHT22;23307;51.136;14.942;2023-06-04T09:15:00;22.40;60.20
37446;DHT22;23307;51.136;14.942;2023-06-04T09:17:27;22.50;61.00
37446;DHT22;23307;51.136;14.942;2023-06-04T09:19:53;22.60;58.80
37446;DHT22;23307;51.136;14.942;2023-06-04T09:22:19;22.70;59.80
37446;DHT22;23307;51.136;14.942;2023-06-04T09:24:45;22.90;60.60
37446;DHT22;23307;51.136;14.942;2023-06-04T09:27:20;23.10;60.00
37446;DHT22;23307;51.136;14.942;2023-06-04T09:29:50;23.20;59.90
37446;DHT22;23307;51.136;14.942;2023-06-04T09:32:24;23.30;59.50
37446;DHT22;23307;51.136;14.942;2023-06-04T09:34:49;23.30;57.60
37446;DHT22;23307;51.136;14.942;2023-06-04T09:37:15;23.20;57.90
37446;DHT22;23307;51.136;14.942;2023-06-04T09:39:43;23.20;56.70
37446;DHT22;23307;51.136;14.942;2023-06-04T09:42:08;23.30;57.20
37446;DHT22;23307;51.136;14.942;2023-06-04T09:44:43;23.30;57.60
37446;DHT22;23307;51.136;14.942;2023-06-04T09:47:11;23.60;59.30
37446;DHT22;23307;51.136;14.942;2023-06-04T09:49:46;23.80;59.50
37446;DHT22;23307;51.136;14.942;2023-06-04T09:52:12;24.00;58.80
37446;DHT22;23307;51.136;14.942;2023-06-04T09:54:39;24.10;57.40
37446;DHT22;23307;51.136;14.942;2023-06-04T09:57:14;24.10;57.60
37446;DHT22;23307;51.136;14.942;2023-06-04T09:59:44;24.30;57.70
37446;DHT22;23307;51.136;14.942;2023-06-04T10:02:11;24.30;56.70
37446;DHT22;23307;51.136;14.942;2023-06-04T10:04:42;24.30;54.90
37446;DHT22;23307;51.136;14.942;2023-06-04T10:07:10;24.30;55.90
37446;DHT22;23307;51.136;14.942;2023-06-04T10:09:39;24.50;55.70
37446;DHT22;23307;51.136;14.942;2023-06-04T10:12:13;24.60;55.00
37446;DHT22;23307;51.136;14.942;2023-06-04T10:14:48;24.70;54.70
37446;DHT22;23307;51.136;14.942;2023-06-04T10:17:15;24.80;55.30
37446;DHT22;23307;51.136;14.942;2023-06-04T10:19:43;24.80;55.90
37446;DHT22;23307;51.136;14.942;2023-06-04T10:22:09;24.80;54.10
37446;DHT22;23307;51.136;14.942;2023-06-04T10:24:37;25.00;55.60
37446;DHT22;23307;51.136;14.942;2023-06-04T10:27:03;25.10;54.80
37446;DHT22;23307;51.136;14.942;2023-06-04T10:29:35;25.00;54.70
37446;DHT22;23307;51.136;14.942;2023-06-04T10:32:01;25.20;54.70
37446;DHT22;23307;51.136;14.942;2023-06-04T10:34:27;25.30;53.50
37446;DHT22;23307;51.136;14.942;2023-06-04T10:36:52;25.50;54.30
37446;DHT22;23307;51.136;14.942;2023-06-04T10:39:28;25.70;52.50
37446;DHT22;23307;51.136;14.942;2023-06-04T10:42:01;25.70;51.00
37446;DHT22;23307;51.136;14.942;2023-06-04T10:44:28;25.80;51.50
37446;DHT22;23307;51.136;14.942;2023-06-04T10:46:54;25.70;50.40
37446;DHT22;23307;51.136;14.942;2023-06-04T10:49:30;25.60;51.50
37446;DHT22;23307;51.136;14.942;2023-06-04T10:51:57;25.70;50.10
37446;DHT22;23307;51.136;14.942;2023-06-04T10:54:28;25.60;50.40
37446;DHT22;23307;51.136;14.942;2023-06-04T10:56:54;25.70;52.00
37446;DHT22;23307;51.136;14.942;2023-06-04T10:59:21;25.80;51.80
37446;DHT22;23307;51.136;14.942;2023-06-04T11:01:47;25.90;52.20
37446;DHT22;23307;51.136;14.942;2023-06-04T11:04:38;26.00;51.50
37446;DHT22;23307;51.136;14.942;2023-06-04T11:07:05;26.30;52.40
37446;DHT22;23307;51.136;14.942;2023-06-04T11:09:35;26.20;51.30
37446;DHT22;23307;51.136;14.942;2023-06-04T11:12:02;26.40;53.30
37446;DHT22;23307;51.136;14.942;2023-06-04T11:14:27;26.70;53.10
37446;DHT22;23307;51.136;14.942;2023-06-04T11:16:53;26.70;50.00
37446;DHT22;23307;51.136;14.942;2023-06-04T11:19:18;26.80;50.20
37446;DHT22;23307;51.136;14.942;2023-06-04T11:21:44;27.10;50.60
37446;DHT22;23307;51.136;14.942;2023-06-04T11:24:12;27.30;50.10
37446;DHT22;23307;51.136;14.942;2023-06-04T11:26:38;27.40;48.30
37446;DHT22;23307;51.136;14.942;2023-06-04T11:29:08;27.30;49.60
37446;DHT22;23307;51.136;14.942;2023-06-04T11:31:44;27.40;47.40
37446;DHT22;23307;51.136;14.942;2023-06-04T11:34:11;27.30;47.50
37446;DHT22;23307;51.136;14.942;2023-06-04T11:36:39;27.40;49.10
37446;DHT22;23307;51.136;14.942;2023-06-04T11:39:05;27.50;48.30
37446;DHT22;23307;51.136;14.942;2023-06-04T11:41:35;27.70;49.40
37446;DHT22;23307;51.136;14.942;2023-06-04T11:44:05;28.10;51.20
37446;DHT22;23307;51.136;14.942;2023-06-04T11:46:34;28.20;47.70
37446;DHT22;23307;51.136;14.942;2023-06-04T11:49:00;28.10;48.00
37446;DHT22;23307;51.136;14.942;2023-06-04T11:51:26;28.10;45.80
37446;DHT22;23307;51.136;14.942;2023-06-04T11:53:52;28.10;46.40
37446;DHT22;23307;51.136;14.942;2023-06-04T11:56:18;28.30;45.70
37446;DHT22;23307;51.136;14.942;2023-06-04T11:58:44;28.50;47.30
37446;DHT22;23307;51.136;14.942;2023-06-04T12:01:12;28.60;46.40
37446;DHT22;23307;51.136;14.942;2023-06-04T12:03:40;28.70;46.60
37446;DHT22;23307;51.136;14.942;2023-06-04T12:06:17;28.90;46.50
37446;DHT22;23307;51.136;14.942;2023-06-04T12:08:53;28.80;42.60
37446;DHT22;23307;51.136;14.942;2023-06-04T12:11:32;28.80;45.30
37446;DHT22;23307;51.136;14.942;2023-06-04T12:14:04;29.10;46.90
37446;DHT22;23307;51.136;14.942;2023-06-04T12:16:30;29.30;46.80
37446;DHT22;23307;51.136;14.942;2023-06-04T12:19:06;29.50;45.80
37446;DHT22;23307;51.136;14.942;2023-06-04T12:21:32;29.70;45.40
37446;DHT22;23307;51.136;14.942;2023-06-04T12:26:33;29.50;43.10
37446;DHT22;23307;51.136;14.942;2023-06-04T12:29:10;29.60;44.60
37446;DHT22;23307;51.136;14.942;2023-06-04T12:31:37;29.80;44.80
37446;DHT22;23307;51.136;14.942;2023-06-04T12:34:03;29.70;42.40
37446;DHT22;23307;51.136;14.942;2023-06-04T12:36:29;29.70;44.40
37446;DHT22;23307;51.136;14.942;2023-06-04T12:39:02;29.90;44.50
37446;DHT22;23307;51.136;14.942;2023-06-04T12:41:28;30.00;44.20
37446;DHT22;23307;51.136;14.942;2023-06-04T12:43:55;30.30;42.80
37446;DHT22;23307;51.136;14.942;2023-06-04T12:46:21;29.90;41.90
37446;DHT22;23307;51.136;14.942;2023-06-04T12:48:48;29.90;42.50
37446;DHT22;23307;51.136;14.942;2023-06-04T12:51:13;30.00;43.70
37446;DHT22;23307;51.136;14.942;2023-06-04T12:53:40;30.30;42.60
37446;DHT22;23307;51.136;14.942;2023-06-04T12:56:05;30.30;40.80
37446;DHT22;23307;51.136;14.942;2023-06-04T12:58:31;30.30;40.70
37446;DHT22;23307;51.136;14.942;2023-06-04T13:00:57;30.10;40.00
37446;DHT22;23307;51.136;14.942;2023-06-04T13:03:23;29.80;41.80
37446;DHT22;23307;51.136;14.942;2023-06-04T13:05:48;29.80;42.70
37446;DHT22;23307;51.136;14.942;2023-06-04T13:08:15;29.90;43.00
37446;DHT22;23307;51.136;14.942;2023-06-04T13:10:40;30.20;43.20
37446;DHT22;23307;51.136;14.942;2023-06-04T13:13:06;30.40;42.90
37446;DHT22;23307;51.136;14.942;2023-06-04T13:15:31;30.80;43.30
37446;DHT22;23307;51.136;14.942;2023-06-04T13:17:57;30.90;42.50
37446;DHT22;23307;51.136;14.942;2023-06-04T13:20:22;31.00;40.90
37446;DHT22;23307;51.136;14.942;2023-06-04T13:22:48;30.90;41.60
37446;DHT22;23307;51.136;14.942;2023-06-04T13:25:13;30.80;40.60
37446;DHT22;23307;51.136;14.942;2023-06-04T13:27:39;30.80;42.30
37446;DHT22;23307;51.136;14.942;2023-06-04T13:30:05;30.90;40.10
37446;DHT22;23307;51.136;14.942;2023-06-04T13:32:31;31.00;41.50
37446;DHT22;23307;51.136;14.942;2023-06-04T13:34:56;31.20;39.70
37446;DHT22;23307;51.136;14.942;2023-06-04T13:37:22;31.30;40.10
37446;DHT22;23307;51.136;14.942;2023-06-04T13:39:48;31.50;40.40
37446;DHT22;23307;51.136;14.942;2023-06-04T13:42:13;31.80;41.00
37446;DHT22;23307;51.136;14.942;2023-06-04T13:44:39;31.90;39.00
37446;DHT22;23307;51.136;14.942;2023-06-04T13:47:04;31.90;39.00
37446;DHT22;23307;51.136;14.942;2023-06-04T13:49:33;31.80;38.20
37446;DHT22;23307;51.136;14.942;2023-06-04T13:51:58;31.80;38.00
37446;DHT22;23307;51.136;14.942;2023-06-04T13:54:24;31.80;38.30
37446;DHT22;23307;51.136;14.942;2023-06-04T13:56:49;31.70;37.30
37446;DHT22;23307;51.136;14.942;2023-06-04T13:59:15;31.80;38.40
37446;DHT22;23307;51.136;14.942;2023-06-04T14:01:40;32.00;38.80
37446;DHT22;23307;51.136;14.942;2023-06-04T14:04:06;32.20;38.70
37446;DHT22;23307;51.136;14.942;2023-06-04T14:06:32;32.40;38.30
37446;DHT22;23307;51.136;14.942;2023-06-04T14:08:58;32.60;38.10
37446;DHT22;23307;51.136;14.942;2023-06-04T14:11:24;32.70;38.80
37446;DHT22;23307;51.136;14.942;2023-06-04T14:13:49;32.80;37.90
37446;DHT22;23307;51.136;14.942;2023-06-04T14:16:15;32.50;36.00
37446;DHT22;23307;51.136;14.942;2023-06-04T14:18:40;32.40;37.30
37446;DHT22;23307;51.136;14.942;2023-06-04T14:21:06;32.50;35.50
37446;DHT22;23307;51.136;14.942;2023-06-04T14:23:31;32.50;37.00
37446;DHT22;23307;51.136;14.942;2023-06-04T14:25:57;32.60;36.20
37446;DHT22;23307;51.136;14.942;2023-06-04T14:28:22;32.60;36.80
37446;DHT22;23307;51.136;14.942;2023-06-04T14:30:48;32.80;36.00
37446;DHT22;23307;51.136;14.942;2023-06-04T14:33:13;32.80;36.70
37446;DHT22;23307;51.136;14.942;2023-06-04T14:35:39;33.00;36.30
37446;DHT22;23307;51.136;14.942;2023-06-04T14:38:09;33.30;35.80
37446;DHT22;23307;51.136;14.942;2023-06-04T14:40:34;33.30;34.00
37446;DHT22;23307;51.136;14.942;2023-06-04T14:43:01;33.20;33.70
37446;DHT22;23307;51.136;14.942;2023-06-04T14:45:26;33.10;33.70
37446;DHT22;23307;51.136;14.942;2023-06-04T14:47:51;33.10;33.00
37446;DHT22;23307;51.136;14.942;2023-06-04T14:50:17;32.80;33.10
37446;DHT22;23307;51.136;14.942;2023-06-04T14:52:44;32.50;33.00
37446;DHT22;23307;51.136;14.942;2023-06-04T14:55:09;32.40;33.10
37446;DHT22;23307;51.136;14.942;2023-06-04T14:57:35;32.30;33.40
37446;DHT22;23307;51.136;14.942;2023-06-04T15:00:00;32.40;35.80
37446;DHT22;23307;51.136;14.942;2023-06-04T15:02:27;32.70;35.20
37446;DHT22;23307;51.136;14.942;2023-06-04T15:04:55;32.80;34.00
37446;DHT22;23307;51.136;14.942;2023-06-04T15:07:21;32.80;33.40
37446;DHT22;23307;51.136;14.942;2023-06-04T15:09:46;32.90;34.00
37446;DHT22;23307;51.136;14.942;2023-06-04T15:12:13;32.90;32.90
37446;DHT22;23307;51.136;14.942;2023-06-04T15:14:40;32.70;33.80
37446;DHT22;23307;51.136;14.942;2023-06-04T15:17:05;32.70;34.40
37446;DHT22;23307;51.136;14.942;2023-06-04T15:19:32;32.90;35.10